Time;durP1;ratioP1;P1;durP2;ratioP2;P2;SDS_P1;SDS_P2;PMS_P1;PMS_P2;Temp;Humidity;BMP_temperature;BMP_pressure;BME280_temperature;BME280_humidity;BME280_pressure;Samples;Min_cycle;Max_cycle;Signal;HPM_P1;HPM_P2
2023/11/29 00:02:54;;;;;;;;;;;1.60;99.90;;;;;;8436384;28;19924;-72
2023/11/29 00:06:56;;;;;;;;;;;1.60;99.90;;;;;;8453344;28;19930;-72
2023/11/29 00:10:59;;;;;;;;;;;1.70;99.90;;;;;;8453018;28;19939;-72
2023/11/29 00:15:00;;;;;;;;;;;1.70;99.90;;;;;;8424150;28;19925;-72
2023/11/29 00:19:02;;;;;;;;;;;1.80;99.90;;;;;;8431642;28;20353;-73
2023/11/29 00:23:04;;;;;;;;;;;1.90;99.90;;;;;;8465805;27;19924;-72
2023/11/29 00:27:06;;;;;;;;;;;1.90;99.90;;;;;;8447100;28;20379;-72
2023/11/29 00:31:07;;;;;;;;;;;1.90;99.90;;;;;;8440623;28;20347;-73
2023/11/29 00:35:09;;;;;;;;;;;1.90;99.90;;;;;;8442657;28;20271;-72
2023/11/29 00:39:11;;;;;;;;;;;2.10;99.90;;;;;;8431382;28;20371;-73
2023/11/29 00:43:12;;;;;;;;;;;2.10;99.90;;;;;;8443422;28;19935;-72
2023/11/29 00:47:16;;;;;;;;;;;2.20;99.90;;;;;;8436363;28;19979;-73
2023/11/29 00:51:18;;;;;;;;;;;2.20;99.90;;;;;;8436949;28;19978;-72
2023/11/29 00:55:19;;;;;;;;;;;2.20;99.90;;;;;;8434195;28;20062;-72
2023/11/29 00:59:26;;;;;;;;;;;2.20;99.90;;;;;;8443544;28;19936;-72
2023/11/29 01:03:28;;;;;;;;;;;2.20;99.90;;;;;;8437329;28;20020;-72
2023/11/29 01:07:29;;;;;;;;;;;2.20;99.90;;;;;;8439856;28;19928;-72
2023/11/29 01:11:31;;;;;;;;;;;2.10;99.90;;;;;;8433280;28;19928;-73
2023/11/29 01:15:33;;;;;;;;;;;2.20;99.90;;;;;;8421878;28;19927;-72
2023/11/29 01:19:34;;;;;;;;;;;2.20;99.90;;;;;;8443330;28;19931;-72
2023/11/29 01:23:36;;;;;;;;;;;2.20;99.90;;;;;;8433157;28;19924;-72
2023/11/29 01:27:38;;;;;;;;;;;2.30;99.90;;;;;;8438149;28;19924;-72
2023/11/29 01:31:39;;;;;;;;;;;2.30;99.90;;;;;;8442819;28;19928;-72
2023/11/29 01:35:41;;;;;;;;;;;2.30;99.90;;;;;;8434077;28;20153;-72
2023/11/29 01:39:44;;;;;;;;;;;2.40;99.90;;;;;;8447075;28;20015;-72
2023/11/29 01:43:46;;;;;;;;;;;2.40;99.90;;;;;;8429190;28;20298;-72
2023/11/29 01:47:47;;;;;;;;;;;2.50;99.90;;;;;;8427010;28;19957;-72
2023/11/29 01:51:49;;;;;;;;;;;2.50;99.90;;;;;;8444512;28;20064;-72
2023/11/29 01:55:52;;;;;;;;;;;2.50;99.90;;;;;;8424679;28;19928;-72
2023/11/29 01:59:54;;;;;;;;;;;2.60;99.90;;;;;;8437135;28;19927;-72
2023/11/29 02:03:56;;;;;;;;;;;2.60;99.90;;;;;;8428378;28;19970;-72
2023/11/29 02:07:58;;;;;;;;;;;2.70;99.90;;;;;;8426422;28;19986;-73
2023/11/29 02:12:00;;;;;;;;;;;2.70;99.90;;;;;;8438700;28;20042;-72
2023/11/29 02:16:02;;;;;;;;;;;2.70;99.90;;;;;;8427527;28;20398;-72
2023/11/29 02:20:04;;;;;;;;;;;2.70;99.90;;;;;;8428448;28;20374;-72
2023/11/29 02:24:16;;;;;;;;;;;2.70;99.90;;;;;;8424598;28;20649;-71
2023/11/29 02:28:18;;;;;;;;;;;2.70;99.90;;;;;;8412374;28;19931;-72
2023/11/29 02:32:20;;;;;;;;;;;2.70;99.90;;;;;;8427144;28;19977;-72
2023/11/29 02:36:22;;;;;;;;;;;2.70;99.90;;;;;;8424077;28;19932;-73
2023/11/29 02:40:24;;;;;;;;;;;2.70;99.90;;;;;;8443239;28;19927;-72
2023/11/29 02:44:26;;;;;;;;;;;2.70;99.90;;;;;;8437396;28;20025;-72
2023/11/29 02:48:27;;;;;;;;;;;2.70;99.90;;;;;;8439181;28;20301;-71
2023/11/29 02:52:29;;;;;;;;;;;2.70;99.90;;;;;;8428464;28;19928;-72
2023/11/29 02:56:31;;;;;;;;;;;2.70;99.90;;;;;;8449294;27;19975;-72
2023/11/29 03:00:32;;;;;;;;;;;2.80;99.90;;;;;;8427386;28;19932;-72
2023/11/29 03:04:34;;;;;;;;;;;2.80;99.90;;;;;;8424389;28;20288;-72
2023/11/29 03:08:36;;;;;;;;;;;2.70;99.90;;;;;;8433147;28;19924;-72
2023/11/29 03:12:38;;;;;;;;;;;2.70;99.90;;;;;;8424348;28;19965;-72
2023/11/29 03:16:40;;;;;;;;;;;2.80;99.90;;;;;;8416355;28;20383;-72
2023/11/29 03:20:41;;;;;;;;;;;2.90;99.90;;;;;;8435672;28;19928;-73
2023/11/29 03:24:46;;;;;;;;;;;2.90;99.90;;;;;;8426210;28;22224;-72
2023/11/29 03:28:48;;;;;;;;;;;3.00;99.90;;;;;;8440574;28;21386;-72
2023/11/29 03:32:50;;;;;;;;;;;3.00;99.90;;;;;;8441484;28;19924;-73
2023/11/29 03:36:52;;;;;;;;;;;3.00;99.90;;;;;;8451747;27;19968;-73
2023/11/29 03:40:53;;;;;;;;;;;3.00;99.90;;;;;;8423021;28;19932;-72
2023/11/29 03:44:55;;;;;;;;;;;3.00;99.90;;;;;;8434041;28;20430;-72
2023/11/29 03:48:57;;;;;;;;;;;3.00;99.90;;;;;;8433094;28;19984;-72
2023/11/29 03:52:59;;;;;;;;;;;3.00;99.90;;;;;;8470351;27;19977;-73
2023/11/29 03:57:01;;;;;;;;;;;3.00;99.90;;;;;;8436198;28;19989;-73
2023/11/29 04:01:03;;;;;;;;;;;3.00;99.90;;;;;;8433351;28;19924;-72
2023/11/29 04:05:05;;;;;;;;;;;3.00;99.90;;;;;;8437106;28;19945;-72
2023/11/29 04:09:08;;;;;;;;;;;3.00;99.90;;;;;;8436414;28;19924;-72
2023/11/29 04:13:10;;;;;;;;;;;3.00;99.90;;;;;;8442784;28;19970;-72
2023/11/29 04:47:40;;;;;;;;;;;3.20;99.90;;;;;;8447228;28;19981;-72
2023/11/29 04:51:42;;;;;;;;;;;3.20;99.90;;;;;;8432770;28;19923;-72
2023/11/29 04:55:44;;;;;;;;;;;3.20;99.90;;;;;;8437187;28;19930;-73
2023/11/29 04:59:46;;;;;;;;;;;3.10;99.90;;;;;;8440444;27;20374;-73
2023/11/29 05:03:47;;;;;;;;;;;3.10;99.90;;;;;;8438943;28;19935;-72
2023/11/29 05:07:51;;;;;;;;;;;3.00;99.90;;;;;;8418361;28;19925;-72
2023/11/29 05:11:53;;;;;;;;;;;3.00;99.90;;;;;;8429334;28;19925;-72
2023/11/29 05:15:54;;;;;;;;;;;2.90;99.90;;;;;;8413433;28;19924;-72
2023/11/29 05:19:56;;;;;;;;;;;2.90;99.90;;;;;;8428024;28;20287;-72
2023/11/29 05:23:58;;;;;;;;;;;2.90;99.90;;;;;;8441341;28;19997;-73
2023/11/29 05:27:59;;;;;;;;;;;2.90;99.90;;;;;;8415966;28;20221;-72
2023/11/29 05:32:01;;;;;;;;;;;2.90;99.90;;;;;;8421999;27;19928;-72
2023/11/29 05:36:03;;;;;;;;;;;3.00;99.90;;;;;;8418413;28;19984;-72
2023/11/29 05:40:08;;;;;;;;;;;3.10;99.90;;;;;;8457784;27;19950;-72
2023/11/29 05:44:35;;;;;;;;;;;3.10;99.90;;;;;;8424349;28;20299;-73
2023/11/29 05:48:37;;;;;;;;;;;3.20;99.90;;;;;;8402600;28;20371;-73
2023/11/29 05:52:39;;;;;;;;;;;3.20;99.90;;;;;;8401423;28;20372;-72
2023/11/29 05:56:40;;;;;;;;;;;3.20;99.90;;;;;;8396245;28;19925;-73
2023/11/29 06:00:43;;;;;;;;;;;3.10;99.90;;;;;;8402488;28;19970;-72
2023/11/29 06:04:44;;;;;;;;;;;3.10;99.90;;;;;;8395231;28;19944;-73
2023/11/29 06:08:46;;;;;;;;;;;3.00;99.90;;;;;;8399500;28;19932;-72
2023/11/29 06:12:48;;;;;;;;;;;3.00;99.90;;;;;;8392746;28;20330;-73
2023/11/29 06:16:50;;;;;;;;;;;3.00;99.90;;;;;;8382317;28;19929;-72
2023/11/29 06:20:51;;;;;;;;;;;2.90;99.90;;;;;;8394285;28;19928;-73
2023/11/29 06:24:53;;;;;;;;;;;2.90;99.90;;;;;;8394811;28;19942;-73
2023/11/29 06:28:55;;;;;;;;;;;2.90;99.90;;;;;;8388962;28;19925;-72
2023/11/29 06:32:57;;;;;;;;;;;2.90;99.90;;;;;;8393279;28;19924;-72
2023/11/29 06:36:59;;;;;;;;;;;3.00;99.90;;;;;;8397396;28;19932;-73
2023/11/29 06:41:00;;;;;;;;;;;3.00;99.90;;;;;;8395038;28;20351;-72
2023/11/29 06:45:03;;;;;;;;;;;3.00;99.90;;;;;;8410697;28;19924;-72
2023/11/29 06:49:05;;;;;;;;;;;3.00;99.90;;;;;;8428974;28;19931;-72
2023/11/29 06:53:07;;;;;;;;;;;3.00;99.90;;;;;;8421209;28;19925;-72
2023/11/29 06:57:09;;;;;;;;;;;3.00;99.90;;;;;;8432959;28;19939;-72
2023/11/29 07:01:11;;;;;;;;;;;3.00;99.90;;;;;;8425345;28;19993;-72
2023/11/29 07:05:13;;;;;;;;;;;3.10;99.90;;;;;;8438922;28;19923;-71
2023/11/29 07:09:16;;;;;;;;;;;3.10;99.90;;;;;;8430466;28;19935;-72
2023/11/29 07:13:18;;;;;;;;;;;3.10;99.90;;;;;;8426783;28;19935;-72
2023/11/29 07:17:20;;;;;;;;;;;3.20;99.90;;;;;;8431022;28;19928;-72
2023/11/29 07:21:21;;;;;;;;;;;3.20;99.90;;;;;;8429179;28;19927;-73
2023/11/29 07:25:23;;;;;;;;;;;3.20;99.90;;;;;;8445390;28;19924;-72
2023/11/29 07:29:25;;;;;;;;;;;3.20;99.90;;;;;;8443874;28;19936;-72
2023/11/29 07:33:27;;;;;;;;;;;3.20;99.90;;;;;;8433933;28;19924;-71
2023/11/29 07:52:40;;;;;;;;;;;3.20;99.90;;;;;;8438604;28;19919;-72
2023/11/29 07:56:42;;;;;;;;;;;3.10;99.90;;;;;;8451927;28;19924;-71
2023/11/29 08:00:44;;;;;;;;;;;3.10;99.90;;;;;;8419947;28;19931;-72
2023/11/29 08:04:45;;;;;;;;;;;3.20;99.90;;;;;;8422641;28;19929;-72
2023/11/29 08:08:47;;;;;;;;;;;3.20;99.90;;;;;;8441699;28;20507;-72
2023/11/29 08:12:50;;;;;;;;;;;3.20;99.90;;;;;;8433100;28;20338;-72
2023/11/29 08:16:52;;;;;;;;;;;3.20;99.90;;;;;;8433648;28;20031;-72
2023/11/29 08:20:53;;;;;;;;;;;3.30;99.90;;;;;;8434383;28;19924;-72
2023/11/29 08:24:55;;;;;;;;;;;3.30;99.90;;;;;;8425563;28;20315;-73
2023/11/29 08:28:58;;;;;;;;;;;3.30;99.90;;;;;;8426983;28;19924;-72
2023/11/29 08:33:00;;;;;;;;;;;3.30;99.90;;;;;;8431945;28;19924;-72
2023/11/29 08:37:02;;;;;;;;;;;3.40;99.90;;;;;;8435687;28;19928;-71
2023/11/29 08:41:04;;;;;;;;;;;3.40;99.90;;;;;;8434600;28;19980;-73
2023/11/29 08:45:06;;;;;;;;;;;3.50;99.90;;;;;;8443542;28;19924;-72
2023/11/29 08:49:08;;;;;;;;;;;3.60;99.90;;;;;;8453117;28;19952;-72
2023/11/29 08:53:10;;;;;;;;;;;3.60;99.90;;;;;;8436877;28;19924;-72
2023/11/29 08:57:12;;;;;;;;;;;3.70;99.90;;;;;;8442228;28;19927;-71
2023/11/29 09:06:17;;;;;;;;;;;4.30;99.90;;;;;;8443041;28;20295;-72
2023/11/29 09:10:19;;;;;;;;;;;4.70;99.90;;;;;;8448148;28;19924;-72
2023/11/29 09:14:20;;;;;;;;;;;5.10;99.90;;;;;;8424161;28;19924;-72
2023/11/29 09:18:22;;;;;;;;;;;5.30;99.90;;;;;;8426844;28;20342;-71
2023/11/29 09:22:24;;;;;;;;;;;5.40;99.90;;;;;;8436146;28;19977;-71
2023/11/29 09:26:27;;;;;;;;;;;5.50;99.90;;;;;;8425179;28;19947;-72
2023/11/29 09:30:28;;;;;;;;;;;5.50;99.90;;;;;;8435608;28;20410;-71
2023/11/29 09:34:30;;;;;;;;;;;5.30;99.90;;;;;;8435018;28;19924;-72
2023/11/29 09:38:32;;;;;;;;;;;5.30;99.90;;;;;;8439459;28;19959;-71
2023/11/29 09:42:34;;;;;;;;;;;5.30;99.90;;;;;;8449003;28;19982;-71
2023/11/29 09:46:36;;;;;;;;;;;5.30;99.90;;;;;;8433958;28;19931;-72
2023/11/29 09:50:39;;;;;;;;;;;5.30;99.90;;;;;;8447072;28;19982;-71
2023/11/29 09:54:40;;;;;;;;;;;5.30;99.90;;;;;;8445443;28;19971;-71
2023/11/29 09:58:43;;;;;;;;;;;5.20;99.90;;;;;;8444359;28;19935;-71
2023/11/29 10:02:44;;;;;;;;;;;5.10;99.90;;;;;;8420877;28;19956;-71
2023/11/29 10:06:46;;;;;;;;;;;5.10;99.90;;;;;;8426074;28;19981;-72
2023/11/29 10:10:48;;;;;;;;;;;5.10;99.90;;;;;;8438346;28;19928;-72
2023/11/29 10:14:50;;;;;;;;;;;5.30;99.90;;;;;;8434627;28;19936;-72
2023/11/29 10:18:58;;;;;;;;;;;5.60;99.90;;;;;;8424633;28;19928;-71
2023/11/29 10:23:00;;;;;;;;;;;5.90;99.90;;;;;;8444729;28;19925;-71
2023/11/29 10:27:03;;;;;;;;;;;6.00;99.90;;;;;;8432930;28;19928;-71
2023/11/29 10:31:05;;;;;;;;;;;6.00;99.90;;;;;;8437820;28;19928;-72
2023/11/29 10:35:10;;;;;;;;;;;6.00;99.90;;;;;;8418964;28;19925;-71
2023/11/29 10:39:15;;;;;;;;;;;6.10;99.90;;;;;;8427199;28;19924;-71
2023/11/29 10:43:23;;;;;;;;;;;6.10;99.90;;;;;;8440844;28;19969;-71
2023/11/29 10:47:46;;;;;;;;;;;6.00;99.90;;;;;;8426653;28;19935;-71
2023/11/29 10:51:48;;;;;;;;;;;6.00;99.90;;;;;;8424488;28;20333;-72
2023/11/29 10:55:50;;;;;;;;;;;5.90;99.90;;;;;;8432802;28;19924;-72
2023/11/29 10:59:58;;;;;;;;;;;5.80;99.90;;;;;;8441267;28;20327;-72
2023/11/29 11:04:00;;;;;;;;;;;6.10;99.90;;;;;;8446793;28;19928;-71
2023/11/29 11:08:01;;;;;;;;;;;6.30;99.90;;;;;;8446448;28;19950;-71
2023/11/29 11:12:05;;;;;;;;;;;6.50;99.90;;;;;;8447108;28;20166;-71
2023/11/29 11:16:07;;;;;;;;;;;7.00;99.90;;;;;;8425823;28;19927;-72
2023/11/29 11:20:10;;;;;;;;;;;7.30;99.90;;;;;;8417445;28;20345;-72
2023/11/29 11:24:12;;;;;;;;;;;7.30;99.90;;;;;;8441085;28;19925;-72
2023/11/29 11:28:26;;;;;;;;;;;7.00;99.90;;;;;;8438555;28;20003;-72
2023/11/29 11:32:37;;;;;;;;;;;6.60;99.90;;;;;;8439921;28;19938;-71
2023/11/29 11:36:39;;;;;;;;;;;6.30;99.90;;;;;;8438366;28;19928;-72
2023/11/29 11:40:41;;;;;;;;;;;6.10;99.90;;;;;;8434994;28;19970;-71
2023/11/29 11:44:42;;;;;;;;;;;5.90;99.90;;;;;;8437876;28;19924;-72
2023/11/29 11:48:44;;;;;;;;;;;5.70;99.90;;;;;;8440769;28;19928;-72
2023/11/29 11:52:46;;;;;;;;;;;5.50;99.90;;;;;;8436013;28;19968;-71
2023/11/29 11:56:48;;;;;;;;;;;5.40;99.90;;;;;;8445376;28;19924;-71
2023/11/29 12:00:50;;;;;;;;;;;5.30;99.90;;;;;;8422280;28;19931;-72
2023/11/29 12:04:51;;;;;;;;;;;5.10;99.90;;;;;;8457366;27;20331;-72
2023/11/29 12:08:53;;;;;;;;;;;4.90;99.90;;;;;;8423983;28;19928;-71
2023/11/29 12:12:55;;;;;;;;;;;4.80;99.90;;;;;;8412955;28;19928;-72
2023/11/29 12:22:28;;;;;;;;;;;4.70;99.90;;;;;;8406260;28;20019;-71
2023/11/29 12:26:30;;;;;;;;;;;4.70;99.90;;;;;;8410727;28;19925;-71
2023/11/29 12:30:31;;;;;;;;;;;4.70;99.90;;;;;;8408953;28;20300;-71
2023/11/29 12:34:33;;;;;;;;;;;4.70;99.90;;;;;;8421770;28;20306;-72
2023/11/29 12:39:03;;;;;;;;;;;4.70;99.90;;;;;;8428605;28;19973;-72
2023/11/29 12:53:11;;;;;;;;;;;4.40;99.90;;;;;;8425271;28;19919;-72
2023/11/29 12:57:13;;;;;;;;;;;4.40;99.90;;;;;;8440360;28;19969;-72
2023/11/29 13:01:14;;;;;;;;;;;4.40;99.90;;;;;;8438622;28;19932;-71
2023/11/29 13:05:16;;;;;;;;;;;4.50;99.90;;;;;;8429960;28;19939;-72
2023/11/29 13:09:18;;;;;;;;;;;4.70;99.90;;;;;;8435682;28;20391;-71
2023/11/29 13:13:20;;;;;;;;;;;4.90;99.90;;;;;;8427892;28;19935;-72
2023/11/29 13:17:22;;;;;;;;;;;5.20;99.90;;;;;;8429679;28;19946;-71
2023/11/29 13:21:24;;;;;;;;;;;5.40;99.90;;;;;;8439116;28;20503;-71
2023/11/29 13:25:26;;;;;;;;;;;5.50;99.90;;;;;;8438139;28;19928;-72
2023/11/29 13:29:27;;;;;;;;;;;5.60;99.90;;;;;;8437863;28;19932;-71
2023/11/29 13:43:37;;;;;;;;;;;5.60;99.90;;;;;;8435822;28;20016;-72
2023/11/29 13:52:42;;;;;;;;;;;5.30;99.90;;;;;;8433891;28;19945;-71
2023/11/29 13:56:44;;;;;;;;;;;5.30;99.90;;;;;;8434026;28;19924;-71
2023/11/29 14:00:46;;;;;;;;;;;5.20;99.90;;;;;;8439976;28;19927;-71
2023/11/29 14:04:47;;;;;;;;;;;5.10;99.90;;;;;;8430015;28;19925;-72
2023/11/29 14:08:50;;;;;;;;;;;5.00;99.90;;;;;;8434763;28;20355;-71
2023/11/29 14:12:52;;;;;;;;;;;5.00;99.90;;;;;;8434852;28;20287;-71
2023/11/29 14:16:53;;;;;;;;;;;5.00;99.90;;;;;;8420329;28;19924;-71
2023/11/29 14:20:55;;;;;;;;;;;5.00;99.90;;;;;;8428633;28;19924;-72
2023/11/29 14:24:57;;;;;;;;;;;5.00;99.90;;;;;;8440734;28;19924;-72
2023/11/29 14:28:58;;;;;;;;;;;5.00;99.90;;;;;;8433017;28;19928;-71
2023/11/29 14:33:00;;;;;;;;;;;5.00;99.90;;;;;;8432377;28;19924;-71
2023/11/29 14:37:03;;;;;;;;;;;4.90;99.90;;;;;;8440031;28;19934;-71
2023/11/29 14:41:05;;;;;;;;;;;4.90;99.90;;;;;;8435223;28;20378;-71
2023/11/29 14:45:14;;;;;;;;;;;4.90;99.90;;;;;;8438058;28;20292;-71
2023/11/29 14:49:16;;;;;;;;;;;4.90;99.90;;;;;;8436599;28;20264;-72
2023/11/29 14:53:26;;;;;;;;;;;4.90;99.90;;;;;;8422837;28;19931;-71
2023/11/29 14:57:28;;;;;;;;;;;4.90;99.90;;;;;;8448374;28;20367;-71
2023/11/29 15:01:30;;;;;;;;;;;4.80;99.90;;;;;;8428913;28;19933;-71
2023/11/29 15:05:32;;;;;;;;;;;4.70;99.90;;;;;;8424214;28;19927;-71
2023/11/29 15:09:35;;;;;;;;;;;4.50;99.90;;;;;;8434509;28;19924;-71
2023/11/29 15:13:38;;;;;;;;;;;4.30;99.90;;;;;;8417750;28;19939;-72
2023/11/29 15:17:42;;;;;;;;;;;4.20;99.90;;;;;;8406324;28;20295;-72
2023/11/29 15:21:44;;;;;;;;;;;4.10;99.90;;;;;;8412699;28;19977;-72
2023/11/29 15:25:46;;;;;;;;;;;4.00;99.90;;;;;;8400490;28;19970;-72
2023/11/29 15:29:48;;;;;;;;;;;3.90;99.90;;;;;;8412391;28;19927;-72
2023/11/29 15:33:49;;;;;;;;;;;3.90;99.90;;;;;;8403830;28;19928;-72
2023/11/29 15:37:51;;;;;;;;;;;3.80;99.90;;;;;;8418611;28;19930;-72
2023/11/29 15:41:53;;;;;;;;;;;3.70;99.90;;;;;;8431184;28;19924;-72
2023/11/29 15:45:57;;;;;;;;;;;3.60;99.90;;;;;;8420199;28;19924;-71
2023/11/29 15:49:59;;;;;;;;;;;3.60;99.90;;;;;;8429466;28;19928;-72
2023/11/29 15:54:01;;;;;;;;;;;3.50;99.90;;;;;;8430899;28;19928;-71
2023/11/29 15:58:03;;;;;;;;;;;3.40;99.90;;;;;;8429205;28;19928;-71
2023/11/29 16:02:05;;;;;;;;;;;3.40;99.90;;;;;;8433467;28;19996;-72
2023/11/29 16:06:07;;;;;;;;;;;3.30;99.90;;;;;;8432509;28;19931;-71
2023/11/29 16:10:09;;;;;;;;;;;3.30;99.90;;;;;;8413299;28;19928;-72
2023/11/29 16:14:11;;;;;;;;;;;3.20;99.90;;;;;;8400914;28;19971;-72
2023/11/29 16:18:12;;;;;;;;;;;3.20;99.90;;;;;;8425839;28;19978;-72
2023/11/29 16:22:15;;;;;;;;;;;3.10;99.90;;;;;;8401060;28;20379;-72
2023/11/29 16:26:17;;;;;;;;;;;3.10;99.90;;;;;;8402441;28;20298;-72
2023/11/29 16:30:19;;;;;;;;;;;3.00;99.90;;;;;;8410346;28;19936;-72
2023/11/29 16:34:21;;;;;;;;;;;2.90;99.90;;;;;;8409986;28;19930;-72
2023/11/29 16:38:23;;;;;;;;;;;2.90;99.90;;;;;;8415450;28;19928;-71
2023/11/29 16:42:25;;;;;;;;;;;2.80;99.90;;;;;;8432292;27;19928;-73
2023/11/29 16:46:27;;;;;;;;;;;2.70;99.90;;;;;;8402037;28;19951;-71
2023/11/29 16:50:34;;;;;;;;;;;2.70;99.90;;;;;;8410709;28;19928;-72
2023/11/29 17:10:12;;;;;;;;;;;2.50;99.90;;;;;;8393501;28;19958;-72
2023/11/29 17:14:14;;;;;;;;;;;2.40;99.90;;;;;;8394276;28;19998;-72
2023/11/29 17:18:16;;;;;;;;;;;2.40;99.90;;;;;;8409421;27;19977;-71
2023/11/29 17:22:20;;;;;;;;;;;2.40;99.90;;;;;;8396985;28;19967;-72
2023/11/29 17:26:22;;;;;;;;;;;2.30;99.90;;;;;;8391699;28;19956;-72
2023/11/29 17:30:24;;;;;;;;;;;2.20;99.90;;;;;;8422213;27;20125;-71
2023/11/29 17:34:25;;;;;;;;;;;2.20;99.90;;;;;;8392337;28;19932;-71
2023/11/29 17:38:27;;;;;;;;;;;2.20;99.90;;;;;;8389445;28;19955;-72
2023/11/29 17:42:29;;;;;;;;;;;2.20;99.90;;;;;;8391283;28;19938;-72
2023/11/29 17:46:34;;;;;;;;;;;2.20;99.90;;;;;;8396957;28;19939;-71
2023/11/29 17:50:36;;;;;;;;;;;2.20;99.90;;;;;;8395507;28;20405;-72
2023/11/29 17:54:38;;;;;;;;;;;2.20;99.90;;;;;;8393884;28;19924;-71
2023/11/29 17:58:39;;;;;;;;;;;2.20;99.90;;;;;;8391966;28;19928;-71
2023/11/29 18:02:42;;;;;;;;;;;2.20;99.90;;;;;;8393530;28;19924;-71
2023/11/29 18:06:44;;;;;;;;;;;2.20;99.90;;;;;;8390555;28;20422;-71
2023/11/29 18:10:48;;;;;;;;;;;2.20;99.90;;;;;;8394079;28;19989;-72
2023/11/29 18:14:51;;;;;;;;;;;2.20;99.90;;;;;;8395735;28;19991;-72
2023/11/29 18:18:53;;;;;;;;;;;2.20;99.90;;;;;;8396007;28;20449;-71
2023/11/29 18:22:55;;;;;;;;;;;2.10;99.90;;;;;;8392363;28;19928;-72
2023/11/29 18:26:57;;;;;;;;;;;2.10;99.90;;;;;;8426502;27;19976;-71
2023/11/29 18:30:59;;;;;;;;;;;2.10;99.90;;;;;;8407279;28;19939;-71
2023/11/29 18:35:01;;;;;;;;;;;2.10;99.90;;;;;;8400038;28;20394;-71
2023/11/29 18:39:03;;;;;;;;;;;2.10;99.90;;;;;;8392507;28;19928;-71
2023/11/29 18:43:05;;;;;;;;;;;2.10;99.90;;;;;;8389995;28;19932;-71
2023/11/29 18:47:07;;;;;;;;;;;2.00;99.90;;;;;;8396333;28;19935;-71
2023/11/29 18:51:08;;;;;;;;;;;2.00;99.90;;;;;;8395158;28;19977;-71
2023/11/29 18:55:10;;;;;;;;;;;1.90;99.90;;;;;;8393256;28;19924;-71
2023/11/29 18:59:14;;;;;;;;;;;1.90;99.90;;;;;;8392935;28;21250;-71
2023/11/29 19:03:16;;;;;;;;;;;1.80;99.90;;;;;;8394933;28;20466;-72
2023/11/29 19:07:17;;;;;;;;;;;1.80;99.90;;;;;;8401965;28;19924;-72
2023/11/29 19:11:19;;;;;;;;;;;1.80;99.90;;;;;;8396211;28;19932;-72
2023/11/29 19:15:21;;;;;;;;;;;1.70;99.90;;;;;;8392982;28;20286;-71
2023/11/29 19:19:23;;;;;;;;;;;1.70;99.90;;;;;;8406243;28;20673;-71
2023/11/29 19:23:24;;;;;;;;;;;1.70;99.90;;;;;;8397368;28;19928;-72
2023/11/29 19:27:34;;;;;;;;;;;1.60;99.90;;;;;;8402361;28;19987;-72
2023/11/29 19:31:36;;;;;;;;;;;1.60;99.90;;;;;;8402186;28;20436;-71
2023/11/29 19:35:37;;;;;;;;;;;1.50;99.90;;;;;;8404975;28;19932;-71
2023/11/29 19:39:39;;;;;;;;;;;1.40;99.90;;;;;;8403259;28;20265;-72
2023/11/29 19:43:41;;;;;;;;;;;1.40;99.90;;;;;;8405980;28;20414;-71
2023/11/29 19:47:42;;;;;;;;;;;1.30;99.90;;;;;;8411967;28;20594;-71
2023/11/29 19:51:44;;;;;;;;;;;1.30;99.90;;;;;;8402587;28;20255;-71
2023/11/29 19:55:46;;;;;;;;;;;1.20;99.90;;;;;;8409302;28;20516;-72
2023/11/29 19:59:48;;;;;;;;;;;1.20;99.90;;;;;;8440249;27;19924;-71
2023/11/29 20:03:50;;;;;;;;;;;1.20;99.90;;;;;;8411937;28;20328;-71
2023/11/29 20:07:52;;;;;;;;;;;1.20;99.90;;;;;;8404151;28;20015;-71
2023/11/29 20:11:54;;;;;;;;;;;1.20;99.90;;;;;;8404051;28;19932;-72
2023/11/29 20:15:57;;;;;;;;;;;1.10;99.90;;;;;;8405954;28;20332;-71
2023/11/29 20:19:58;;;;;;;;;;;1.10;99.90;;;;;;8410908;28;19936;-71
2023/11/29 20:24:04;;;;;;;;;;;1.10;99.90;;;;;;8410213;28;19927;-71
2023/11/29 20:28:06;;;;;;;;;;;1.10;99.90;;;;;;8403208;28;20330;-72
2023/11/29 20:32:08;;;;;;;;;;;1.10;99.90;;;;;;8394311;28;19928;-72
2023/11/29 20:36:09;;;;;;;;;;;1.10;99.90;;;;;;8398168;28;19929;-72
2023/11/29 20:40:13;;;;;;;;;;;1.10;99.90;;;;;;8397137;28;20043;-72
2023/11/29 20:44:16;;;;;;;;;;;1.20;99.90;;;;;;8394504;28;20031;-72
2023/11/29 20:48:17;;;;;;;;;;;1.20;99.90;;;;;;8393217;28;20391;-71
2023/11/29 20:52:19;;;;;;;;;;;1.20;99.90;;;;;;8396332;28;19963;-71
2023/11/29 20:56:21;;;;;;;;;;;1.20;99.90;;;;;;8393368;28;20376;-71
2023/11/29 21:00:22;;;;;;;;;;;1.20;99.90;;;;;;8427236;27;19970;-72
2023/11/29 21:04:24;;;;;;;;;;;1.20;99.90;;;;;;8395868;28;20038;-71
2023/11/29 21:08:26;;;;;;;;;;;1.20;99.90;;;;;;8435541;27;19981;-72
2023/11/29 21:12:27;;;;;;;;;;;1.30;99.90;;;;;;8404294;28;19924;-71
2023/11/29 21:16:29;;;;;;;;;;;1.30;99.90;;;;;;8394282;28;20639;-72
2023/11/29 21:20:31;;;;;;;;;;;1.30;99.90;;;;;;8393342;28;20343;-71
2023/11/29 21:24:33;;;;;;;;;;;1.30;99.90;;;;;;8394501;28;19928;-71
2023/11/29 21:28:36;;;;;;;;;;;1.30;99.90;;;;;;8395017;28;19936;-71
2023/11/29 21:32:38;;;;;;;;;;;1.30;99.90;;;;;;8398138;28;19924;-72
2023/11/29 21:36:40;;;;;;;;;;;1.30;99.90;;;;;;8396154;28;20330;-71
2023/11/29 21:40:41;;;;;;;;;;;1.40;99.90;;;;;;8390474;28;19940;-72
2023/11/29 21:44:44;;;;;;;;;;;1.40;99.90;;;;;;8392652;28;20296;-71
2023/11/29 21:48:46;;;;;;;;;;;1.40;99.90;;;;;;8389883;28;19925;-71
2023/11/29 21:52:47;;;;;;;;;;;1.40;99.90;;;;;;8389906;28;19932;-72
2023/11/29 21:56:49;;;;;;;;;;;1.40;99.90;;;;;;8396738;28;19924;-71
2023/11/29 22:00:51;;;;;;;;;;;1.40;99.90;;;;;;8394280;28;19924;-71
2023/11/29 22:04:52;;;;;;;;;;;1.40;99.90;;;;;;8429992;28;19924;-71
2023/11/29 22:08:54;;;;;;;;;;;1.40;99.90;;;;;;8424884;28;20267;-71
2023/11/29 22:12:56;;;;;;;;;;;1.40;99.90;;;;;;8429145;28;19924;-72
2023/11/29 22:16:57;;;;;;;;;;;1.40;99.90;;;;;;8431367;28;19999;-72
2023/11/29 22:20:59;;;;;;;;;;;1.40;99.90;;;;;;8432540;28;19924;-72
2023/11/29 22:25:01;;;;;;;;;;;1.40;99.90;;;;;;8468848;27;19947;-71
2023/11/29 22:29:03;;;;;;;;;;;1.40;99.90;;;;;;8431853;28;20354;-72
2023/11/29 22:33:05;;;;;;;;;;;1.40;99.90;;;;;;8433022;28;19936;-71
2023/11/29 22:37:06;;;;;;;;;;;1.30;99.90;;;;;;8432518;28;19928;-72
2023/11/29 22:41:18;;;;;;;;;;;1.30;99.90;;;;;;8438715;28;20395;-71
2023/11/29 22:45:22;;;;;;;;;;;1.20;99.90;;;;;;8442496;28;19923;-71
2023/11/29 22:49:24;;;;;;;;;;;1.10;99.90;;;;;;8438426;28;19923;-72
2023/11/29 22:53:25;;;;;;;;;;;1.00;99.90;;;;;;8435329;28;19935;-72
2023/11/29 22:57:27;;;;;;;;;;;1.00;99.90;;;;;;8441816;28;20394;-72
2023/11/29 23:01:31;;;;;;;;;;;1.00;99.90;;;;;;8438624;28;19924;-72
2023/11/29 23:05:33;;;;;;;;;;;1.00;99.90;;;;;;8433809;28;19970;-71
2023/11/29 23:09:35;;;;;;;;;;;0.90;99.90;;;;;;8431101;28;20357;-71
2023/11/29 23:13:37;;;;;;;;;;;0.90;99.90;;;;;;8443962;28;19931;-71
2023/11/29 23:17:39;;;;;;;;;;;0.90;99.90;;;;;;8419531;28;19930;-71
2023/11/29 23:21:41;;;;;;;;;;;0.90;99.90;;;;;;8429872;28;19967;-71
2023/11/29 23:25:42;;;;;;;;;;;0.80;99.90;;;;;;8445658;28;20460;-71
2023/11/29 23:29:44;;;;;;;;;;;0.70;99.90;;;;;;8442382;28;19931;-73
2023/11/29 23:33:45;;;;;;;;;;;0.80;99.90;;;;;;8421768;28;19924;-72
2023/11/29 23:37:47;;;;;;;;;;;0.70;99.90;;;;;;8425502;28;19927;-72
2023/11/29 23:41:49;;;;;;;;;;;0.70;99.90;;;;;;8431711;28;19931;-71
2023/11/29 23:45:50;;;;;;;;;;;0.70;99.90;;;;;;8434855;28;19933;-72
2023/11/29 23:49:52;;;;;;;;;;;0.70;99.90;;;;;;8432431;28;19934;-72
2023/11/29 23:53:54;;;;;;;;;;;0.80;99.90;;;;;;8429268;28;19959;-71
2023/11/29 23:57:55;;;;;;;;;;;0.90;99.90;;;;;;8473893;27;19924;-72
